sensor_id;sensor_type;location;lat;lon;timestamp;P1;durP1;ratioP1;P2;durP2;ratioP2
19673;SDS011;9986;50.610;7.230;2022-08-05T00:02:00;6.13;;;3.13;;
19673;SDS011;9986;50.610;7.230;2022-08-05T00:07:20;5.73;;;3.53;;
19673;SDS011;9986;50.610;7.230;2022-08-05T00:09:57;5.07;;;3.07;;
19673;SDS011;9986;50.610;7.230;2022-08-05T00:12:35;7.40;;;3.50;;
19673;SDS011;9986;50.610;7.230;2022-08-05T00:15:13;6.53;;;3.77;;
19673;SDS011;9986;50.610;7.230;2022-08-05T00:20:20;4.37;;;3.20;;
19673;SDS011;9986;50.610;7.230;2022-08-05T00:22:57;8.43;;;3.00;;
19673;SDS011;9986;50.610;7.230;2022-08-05T00:25:35;7.20;;;3.30;;
19673;SDS011;9986;50.610;7.230;2022-08-05T00:30:49;8.50;;;3.63;;
19673;SDS011;9986;50.610;7.230;2022-08-05T00:33:27;4.83;;;3.55;;
19673;SDS011;9986;50.610;7.230;2022-08-05T00:36:05;4.40;;;3.47;;
19673;SDS011;9986;50.610;7.230;2022-08-05T00:38:43;6.73;;;3.57;;
19673;SDS011;9986;50.610;7.230;2022-08-05T00:44:03;7.20;;;4.07;;
19673;SDS011;9986;50.610;7.230;2022-08-05T00:46:44;6.95;;;3.90;;
19673;SDS011;9986;50.610;7.230;2022-08-05T00:49:22;3.73;;;3.07;;
19673;SDS011;9986;50.610;7.230;2022-08-05T00:51:59;7.93;;;4.63;;
19673;SDS011;9986;50.610;7.230;2022-08-05T00:54:37;4.60;;;3.73;;
19673;SDS011;9986;50.610;7.230;2022-08-05T00:57:15;6.40;;;3.80;;
19673;SDS011;9986;50.610;7.230;2022-08-05T00:59:53;3.83;;;3.40;;
19673;SDS011;9986;50.610;7.230;2022-08-05T01:02:30;6.27;;;3.63;;
19673;SDS011;9986;50.610;7.230;2022-08-05T01:05:08;3.87;;;3.47;;
19673;SDS011;9986;50.610;7.230;2022-08-05T01:07:46;9.80;;;3.70;;
19673;SDS011;9986;50.610;7.230;2022-08-05T01:10:26;9.37;;;3.60;;
19673;SDS011;9986;50.610;7.230;2022-08-05T01:15:40;4.27;;;3.43;;
19673;SDS011;9986;50.610;7.230;2022-08-05T01:20:51;6.13;;;4.40;;
19673;SDS011;9986;50.610;7.230;2022-08-05T01:23:42;4.77;;;3.50;;
19673;SDS011;9986;50.610;7.230;2022-08-05T01:26:31;7.53;;;3.77;;
19673;SDS011;9986;50.610;7.230;2022-08-05T01:31:47;5.80;;;4.20;;
19673;SDS011;9986;50.610;7.230;2022-08-05T01:34:27;7.63;;;3.80;;
19673;SDS011;9986;50.610;7.230;2022-08-05T01:37:07;3.90;;;3.53;;
19673;SDS011;9986;50.610;7.230;2022-08-05T01:39:50;5.53;;;3.57;;
19673;SDS011;9986;50.610;7.230;2022-08-05T01:47:35;8.77;;;4.43;;
19673;SDS011;9986;50.610;7.230;2022-08-05T01:50:16;6.10;;;3.67;;
19673;SDS011;9986;50.610;7.230;2022-08-05T01:55:28;4.87;;;4.20;;
19673;SDS011;9986;50.610;7.230;2022-08-05T01:58:07;4.67;;;3.70;;
19673;SDS011;9986;50.610;7.230;2022-08-05T02:03:30;5.23;;;3.60;;
19673;SDS011;9986;50.610;7.230;2022-08-05T02:06:05;5.20;;;4.10;;
19673;SDS011;9986;50.610;7.230;2022-08-05T02:08:43;8.83;;;3.97;;
19673;SDS011;9986;50.610;7.230;2022-08-05T02:11:21;5.50;;;3.60;;
19673;SDS011;9986;50.610;7.230;2022-08-05T02:14:00;6.53;;;3.93;;
19673;SDS011;9986;50.610;7.230;2022-08-05T02:22:00;6.13;;;4.53;;
19673;SDS011;9986;50.610;7.230;2022-08-05T02:29:47;8.07;;;4.27;;
19673;SDS011;9986;50.610;7.230;2022-08-05T02:32:24;7.43;;;5.27;;
19673;SDS011;9986;50.610;7.230;2022-08-05T02:35:10;6.33;;;4.83;;
19673;SDS011;9986;50.610;7.230;2022-08-05T02:37:48;8.20;;;5.17;;
19673;SDS011;9986;50.610;7.230;2022-08-05T02:40:28;9.50;;;4.73;;
19673;SDS011;9986;50.610;7.230;2022-08-05T02:45:43;8.60;;;4.40;;
19673;SDS011;9986;50.610;7.230;2022-08-05T02:48:27;7.13;;;4.57;;
19673;SDS011;9986;50.610;7.230;2022-08-05T02:51:13;6.03;;;4.50;;
19673;SDS011;9986;50.610;7.230;2022-08-05T02:53:52;8.53;;;4.67;;
19673;SDS011;9986;50.610;7.230;2022-08-05T02:56:30;7.37;;;4.60;;
19673;SDS011;9986;50.610;7.230;2022-08-05T03:01:45;9.50;;;4.30;;
19673;SDS011;9986;50.610;7.230;2022-08-05T03:06:55;7.07;;;4.90;;
19673;SDS011;9986;50.610;7.230;2022-08-05T03:09:35;5.33;;;4.63;;
19673;SDS011;9986;50.610;7.230;2022-08-05T03:12:28;6.90;;;5.30;;
19673;SDS011;9986;50.610;7.230;2022-08-05T03:15:08;5.53;;;4.00;;
19673;SDS011;9986;50.610;7.230;2022-08-05T03:22:59;7.10;;;4.70;;
19673;SDS011;9986;50.610;7.230;2022-08-05T03:25:37;6.43;;;5.33;;
19673;SDS011;9986;50.610;7.230;2022-08-05T03:28:15;5.93;;;5.37;;
19673;SDS011;9986;50.610;7.230;2022-08-05T03:30:53;7.43;;;5.33;;
19673;SDS011;9986;50.610;7.230;2022-08-05T03:33:31;9.90;;;6.83;;
19673;SDS011;9986;50.610;7.230;2022-08-05T03:36:15;10.13;;;7.17;;
19673;SDS011;9986;50.610;7.230;2022-08-05T03:38:53;9.40;;;6.80;;
19673;SDS011;9986;50.610;7.230;2022-08-05T03:41:31;8.53;;;6.67;;
19673;SDS011;9986;50.610;7.230;2022-08-05T03:44:08;6.13;;;5.60;;
19673;SDS011;9986;50.610;7.230;2022-08-05T03:46:46;9.50;;;5.47;;
19673;SDS011;9986;50.610;7.230;2022-08-05T03:49:24;7.70;;;5.77;;
19673;SDS011;9986;50.610;7.230;2022-08-05T03:54:32;7.80;;;6.20;;
19673;SDS011;9986;50.610;7.230;2022-08-05T03:59:42;5.63;;;5.03;;
19673;SDS011;9986;50.610;7.230;2022-08-05T04:04:52;10.57;;;6.37;;
19673;SDS011;9986;50.610;7.230;2022-08-05T04:07:30;7.17;;;6.47;;
19673;SDS011;9986;50.610;7.230;2022-08-05T04:10:08;7.03;;;5.97;;
19673;SDS011;9986;50.610;7.230;2022-08-05T04:12:46;8.77;;;6.00;;
19673;SDS011;9986;50.610;7.230;2022-08-05T04:17:53;8.37;;;6.23;;
19673;SDS011;9986;50.610;7.230;2022-08-05T04:20:31;13.00;;;6.57;;
19673;SDS011;9986;50.610;7.230;2022-08-05T04:25:38;9.73;;;7.27;;
19673;SDS011;9986;50.610;7.230;2022-08-05T04:33:34;10.90;;;6.90;;
19673;SDS011;9986;50.610;7.230;2022-08-05T04:36:15;8.70;;;7.23;;
19673;SDS011;9986;50.610;7.230;2022-08-05T04:41:22;11.77;;;7.03;;
19673;SDS011;9986;50.610;7.230;2022-08-05T04:43:59;8.30;;;6.70;;
19673;SDS011;9986;50.610;7.230;2022-08-05T04:46:44;7.57;;;6.67;;
19673;SDS011;9986;50.610;7.230;2022-08-05T04:49:22;10.90;;;6.40;;
19673;SDS011;9986;50.610;7.230;2022-08-05T04:52:00;9.63;;;5.70;;
19673;SDS011;9986;50.610;7.230;2022-08-05T04:57:13;9.83;;;6.90;;
19673;SDS011;9986;50.610;7.230;2022-08-05T04:59:50;8.40;;;6.73;;
19673;SDS011;9986;50.610;7.230;2022-08-05T05:02:28;7.00;;;6.30;;
19673;SDS011;9986;50.610;7.230;2022-08-05T05:05:06;10.37;;;7.27;;
19673;SDS011;9986;50.610;7.230;2022-08-05T05:07:44;8.37;;;7.10;;
19673;SDS011;9986;50.610;7.230;2022-08-05T05:10:22;9.83;;;8.20;;
19673;SDS011;9986;50.610;7.230;2022-08-05T05:15:36;8.20;;;6.93;;
19673;SDS011;9986;50.610;7.230;2022-08-05T05:18:16;12.23;;;8.13;;
19673;SDS011;9986;50.610;7.230;2022-08-05T05:20:54;10.07;;;7.80;;
19673;SDS011;9986;50.610;7.230;2022-08-05T05:23:32;10.53;;;8.37;;
19673;SDS011;9986;50.610;7.230;2022-08-05T05:26:09;13.27;;;8.13;;
19673;SDS011;9986;50.610;7.230;2022-08-05T05:28:47;8.97;;;7.50;;
19673;SDS011;9986;50.610;7.230;2022-08-05T05:31:25;9.97;;;7.50;;
19673;SDS011;9986;50.610;7.230;2022-08-05T05:34:03;9.17;;;6.90;;
19673;SDS011;9986;50.610;7.230;2022-08-05T05:36:40;10.67;;;9.50;;
19673;SDS011;9986;50.610;7.230;2022-08-05T05:39:18;15.00;;;9.50;;
19673;SDS011;9986;50.610;7.230;2022-08-05T05:41:56;10.70;;;7.87;;
19673;SDS011;9986;50.610;7.230;2022-08-05T05:44:42;9.37;;;6.53;;
19673;SDS011;9986;50.610;7.230;2022-08-05T05:49:49;9.30;;;7.63;;
19673;SDS011;9986;50.610;7.230;2022-08-05T05:52:27;10.07;;;6.83;;
19673;SDS011;9986;50.610;7.230;2022-08-05T05:55:06;9.70;;;7.40;;
19673;SDS011;9986;50.610;7.230;2022-08-05T05:57:44;10.03;;;7.30;;
19673;SDS011;9986;50.610;7.230;2022-08-05T06:00:22;8.83;;;7.03;;
19673;SDS011;9986;50.610;7.230;2022-08-05T06:03:00;10.23;;;7.00;;
19673;SDS011;9986;50.610;7.230;2022-08-05T06:05:38;10.20;;;6.77;;
19673;SDS011;9986;50.610;7.230;2022-08-05T06:13:24;9.33;;;6.90;;
19673;SDS011;9986;50.610;7.230;2022-08-05T06:18:38;7.83;;;6.30;;
19673;SDS011;9986;50.610;7.230;2022-08-05T06:21:16;7.60;;;6.90;;
19673;SDS011;9986;50.610;7.230;2022-08-05T06:23:53;8.60;;;7.30;;
19673;SDS011;9986;50.610;7.230;2022-08-05T06:26:31;9.20;;;7.63;;
19673;SDS011;9986;50.610;7.230;2022-08-05T06:29:09;8.73;;;7.40;;
19673;SDS011;9986;50.610;7.230;2022-08-05T06:31:46;9.40;;;7.27;;
19673;SDS011;9986;50.610;7.230;2022-08-05T06:34:25;8.90;;;7.43;;
19673;SDS011;9986;50.610;7.230;2022-08-05T06:37:06;11.57;;;8.57;;
19673;SDS011;9986;50.610;7.230;2022-08-05T06:39:44;11.27;;;8.57;;
19673;SDS011;9986;50.610;7.230;2022-08-05T06:42:21;11.23;;;8.50;;
19673;SDS011;9986;50.610;7.230;2022-08-05T06:44:59;8.50;;;7.63;;
19673;SDS011;9986;50.610;7.230;2022-08-05T06:47:39;9.47;;;7.87;;
19673;SDS011;9986;50.610;7.230;2022-08-05T06:50:17;11.03;;;8.30;;
19673;SDS011;9986;50.610;7.230;2022-08-05T06:52:55;13.47;;;9.27;;
19673;SDS011;9986;50.610;7.230;2022-08-05T06:58:09;15.90;;;9.27;;
19673;SDS011;9986;50.610;7.230;2022-08-05T07:03:16;10.63;;;8.63;;
19673;SDS011;9986;50.610;7.230;2022-08-05T07:05:53;10.67;;;8.23;;
19673;SDS011;9986;50.610;7.230;2022-08-05T07:08:31;17.57;;;10.00;;
19673;SDS011;9986;50.610;7.230;2022-08-05T07:11:09;9.33;;;8.33;;
19673;SDS011;9986;50.610;7.230;2022-08-05T07:16:16;11.40;;;10.27;;
19673;SDS011;9986;50.610;7.230;2022-08-05T07:18:54;16.33;;;9.70;;
19673;SDS011;9986;50.610;7.230;2022-08-05T07:21:32;12.13;;;9.23;;
19673;SDS011;9986;50.610;7.230;2022-08-05T07:24:09;13.87;;;9.17;;
19673;SDS011;9986;50.610;7.230;2022-08-05T07:29:17;12.40;;;9.83;;
19673;SDS011;9986;50.610;7.230;2022-08-05T07:31:54;13.37;;;10.67;;
19673;SDS011;9986;50.610;7.230;2022-08-05T07:34:35;13.60;;;11.73;;
19673;SDS011;9986;50.610;7.230;2022-08-05T07:37:15;13.40;;;11.77;;
19673;SDS011;9986;50.610;7.230;2022-08-05T07:39:55;20.40;;;13.50;;
19673;SDS011;9986;50.610;7.230;2022-08-05T07:42:33;17.43;;;15.57;;
19673;SDS011;9986;50.610;7.230;2022-08-05T07:45:11;20.60;;;16.67;;
19673;SDS011;9986;50.610;7.230;2022-08-05T07:50:25;18.50;;;16.47;;
19673;SDS011;9986;50.610;7.230;2022-08-05T07:55:44;22.30;;;18.87;;
19673;SDS011;9986;50.610;7.230;2022-08-05T07:58:24;23.63;;;20.73;;
19673;SDS011;9986;50.610;7.230;2022-08-05T08:01:08;22.07;;;19.67;;
19673;SDS011;9986;50.610;7.230;2022-08-05T08:03:46;22.93;;;20.43;;
19673;SDS011;9986;50.610;7.230;2022-08-05T08:06:24;21.40;;;19.10;;
19673;SDS011;9986;50.610;7.230;2022-08-05T08:09:02;25.40;;;20.43;;
19673;SDS011;9986;50.610;7.230;2022-08-05T08:11:40;22.10;;;19.80;;
19673;SDS011;9986;50.610;7.230;2022-08-05T08:14:18;25.07;;;21.73;;
19673;SDS011;9986;50.610;7.230;2022-08-05T08:16:56;22.20;;;19.90;;
19673;SDS011;9986;50.610;7.230;2022-08-05T08:19:34;23.47;;;20.47;;
19673;SDS011;9986;50.610;7.230;2022-08-05T08:22:14;23.77;;;21.20;;
19673;SDS011;9986;50.610;7.230;2022-08-05T08:24:51;23.37;;;20.77;;
19673;SDS011;9986;50.610;7.230;2022-08-05T08:27:29;21.17;;;18.17;;
19673;SDS011;9986;50.610;7.230;2022-08-05T08:30:08;20.20;;;18.03;;
19673;SDS011;9986;50.610;7.230;2022-08-05T08:35:23;19.83;;;17.83;;
19673;SDS011;9986;50.610;7.230;2022-08-05T08:38:01;21.87;;;18.93;;
19673;SDS011;9986;50.610;7.230;2022-08-05T08:40:38;19.57;;;17.30;;
19673;SDS011;9986;50.610;7.230;2022-08-05T08:43:18;19.57;;;17.67;;
19673;SDS011;9986;50.610;7.230;2022-08-05T08:48:27;18.67;;;16.67;;
19673;SDS011;9986;50.610;7.230;2022-08-05T08:53:37;19.17;;;17.00;;
19673;SDS011;9986;50.610;7.230;2022-08-05T08:56:15;19.40;;;17.30;;
19673;SDS011;9986;50.610;7.230;2022-08-05T08:58:53;19.87;;;17.17;;
19673;SDS011;9986;50.610;7.230;2022-08-05T09:01:31;20.20;;;17.47;;
19673;SDS011;9986;50.610;7.230;2022-08-05T09:04:09;20.37;;;17.23;;
19673;SDS011;9986;50.610;7.230;2022-08-05T09:06:48;21.43;;;16.50;;
19673;SDS011;9986;50.610;7.230;2022-08-05T09:09:32;21.63;;;18.20;;
19673;SDS011;9986;50.610;7.230;2022-08-05T09:12:11;18.90;;;15.83;;
19673;SDS011;9986;50.610;7.230;2022-08-05T09:14:50;18.50;;;16.13;;
19673;SDS011;9986;50.610;7.230;2022-08-05T09:17:27;20.17;;;15.63;;
19673;SDS011;9986;50.610;7.230;2022-08-05T09:20:12;17.70;;;14.83;;
19673;SDS011;9986;50.610;7.230;2022-08-05T09:23:06;21.87;;;16.07;;
19673;SDS011;9986;50.610;7.230;2022-08-05T09:25:51;19.50;;;14.97;;
19673;SDS011;9986;50.610;7.230;2022-08-05T09:28:29;21.30;;;15.53;;
19673;SDS011;9986;50.610;7.230;2022-08-05T09:39:00;17.60;;;13.33;;
19673;SDS011;9986;50.610;7.230;2022-08-05T09:41:54;18.93;;;13.70;;
19673;SDS011;9986;50.610;7.230;2022-08-05T09:44:39;16.53;;;13.03;;
19673;SDS011;9986;50.610;7.230;2022-08-05T09:47:18;15.93;;;11.97;;
19673;SDS011;9986;50.610;7.230;2022-08-05T09:52:27;17.50;;;12.87;;
19673;SDS011;9986;50.610;7.230;2022-08-05T09:55:06;19.27;;;13.10;;
19673;SDS011;9986;50.610;7.230;2022-08-05T10:00:21;16.53;;;12.03;;
19673;SDS011;9986;50.610;7.230;2022-08-05T10:02:59;16.17;;;11.93;;
19673;SDS011;9986;50.610;7.230;2022-08-05T10:05:38;16.87;;;12.60;;
19673;SDS011;9986;50.610;7.230;2022-08-05T10:10:52;21.40;;;15.57;;
19673;SDS011;9986;50.610;7.230;2022-08-05T10:13:32;22.37;;;16.07;;
19673;SDS011;9986;50.610;7.230;2022-08-05T10:16:27;20.60;;;15.97;;
19673;SDS011;9986;50.610;7.230;2022-08-05T10:19:05;23.33;;;17.23;;
19673;SDS011;9986;50.610;7.230;2022-08-05T10:21:43;21.73;;;17.83;;
19673;SDS011;9986;50.610;7.230;2022-08-05T10:24:21;24.97;;;19.37;;
19673;SDS011;9986;50.610;7.230;2022-08-05T10:26:59;25.70;;;20.13;;
19673;SDS011;9986;50.610;7.230;2022-08-05T10:29:37;24.80;;;19.47;;
19673;SDS011;9986;50.610;7.230;2022-08-05T10:32:16;31.07;;;23.77;;
19673;SDS011;9986;50.610;7.230;2022-08-05T10:34:47;30.80;;;26.40;;
19673;SDS011;9986;50.610;7.230;2022-08-05T10:37:31;29.90;;;25.57;;
19673;SDS011;9986;50.610;7.230;2022-08-05T10:40:13;29.53;;;23.27;;
19673;SDS011;9986;50.610;7.230;2022-08-05T10:42:58;30.03;;;24.43;;
19673;SDS011;9986;50.610;7.230;2022-08-05T10:51:13;31.67;;;25.30;;
19673;SDS011;9986;50.610;7.230;2022-08-05T10:56:28;40.63;;;32.33;;
19673;SDS011;9986;50.610;7.230;2022-08-05T10:59:06;41.10;;;32.00;;
19673;SDS011;9986;50.610;7.230;2022-08-05T11:01:44;40.50;;;32.67;;
19673;SDS011;9986;50.610;7.230;2022-08-05T11:04:22;43.23;;;34.03;;
19673;SDS011;9986;50.610;7.230;2022-08-05T11:07:03;48.77;;;35.33;;
19673;SDS011;9986;50.610;7.230;2022-08-05T11:09:48;41.77;;;32.67;;
19673;SDS011;9986;50.610;7.230;2022-08-05T11:15:21;35.27;;;29.57;;
19673;SDS011;9986;50.610;7.230;2022-08-05T11:18:06;34.57;;;28.83;;
19673;SDS011;9986;50.610;7.230;2022-08-05T11:20:45;29.03;;;25.07;;
19673;SDS011;9986;50.610;7.230;2022-08-05T11:23:34;29.10;;;22.83;;
19673;SDS011;9986;50.610;7.230;2022-08-05T11:28:55;22.63;;;20.23;;
19673;SDS011;9986;50.610;7.230;2022-08-05T11:31:39;23.80;;;19.57;;
19673;SDS011;9986;50.610;7.230;2022-08-05T11:34:24;18.23;;;16.43;;
19673;SDS011;9986;50.610;7.230;2022-08-05T11:37:11;17.30;;;15.60;;
19673;SDS011;9986;50.610;7.230;2022-08-05T11:40:08;15.90;;;14.37;;
19673;SDS011;9986;50.610;7.230;2022-08-05T11:42:47;14.20;;;12.80;;
19673;SDS011;9986;50.610;7.230;2022-08-05T11:45:44;11.87;;;10.67;;
19673;SDS011;9986;50.610;7.230;2022-08-05T11:48:23;8.53;;;7.73;;
19673;SDS011;9986;50.610;7.230;2022-08-05T11:53:41;6.70;;;6.10;;
19673;SDS011;9986;50.610;7.230;2022-08-05T11:58:52;6.37;;;5.30;;
19673;SDS011;9986;50.610;7.230;2022-08-05T12:03:59;6.40;;;4.67;;
19673;SDS011;9986;50.610;7.230;2022-08-05T12:06:37;5.17;;;4.67;;
19673;SDS011;9986;50.610;7.230;2022-08-05T12:09:22;7.23;;;4.47;;
19673;SDS011;9986;50.610;7.230;2022-08-05T12:12:00;8.27;;;4.83;;
19673;SDS011;9986;50.610;7.230;2022-08-05T12:14:44;3.87;;;3.57;;
19673;SDS011;9986;50.610;7.230;2022-08-05T12:17:22;4.77;;;4.13;;
19673;SDS011;9986;50.610;7.230;2022-08-05T12:20:00;9.23;;;7.93;;
19673;SDS011;9986;50.610;7.230;2022-08-05T12:27:53;4.63;;;4.00;;
19673;SDS011;9986;50.610;7.230;2022-08-05T12:30:35;5.67;;;3.90;;
19673;SDS011;9986;50.610;7.230;2022-08-05T12:33:19;4.97;;;3.93;;
19673;SDS011;9986;50.610;7.230;2022-08-05T12:38:26;5.27;;;4.47;;
19673;SDS011;9986;50.610;7.230;2022-08-05T12:41:06;7.80;;;3.90;;
19673;SDS011;9986;50.610;7.230;2022-08-05T12:43:48;5.10;;;3.60;;
19673;SDS011;9986;50.610;7.230;2022-08-05T12:51:45;4.57;;;3.20;;
19673;SDS011;9986;50.610;7.230;2022-08-05T12:54:24;5.27;;;3.37;;
19673;SDS011;9986;50.610;7.230;2022-08-05T12:57:11;3.80;;;3.40;;
19673;SDS011;9986;50.610;7.230;2022-08-05T12:59:49;3.90;;;3.13;;
19673;SDS011;9986;50.610;7.230;2022-08-05T13:05:04;5.10;;;4.03;;
19673;SDS011;9986;50.610;7.230;2022-08-05T13:07:44;5.73;;;3.23;;
19673;SDS011;9986;50.610;7.230;2022-08-05T13:10:24;3.97;;;2.93;;
19673;SDS011;9986;50.610;7.230;2022-08-05T13:15:32;4.40;;;3.83;;
19673;SDS011;9986;50.610;7.230;2022-08-05T13:18:10;3.93;;;3.57;;
19673;SDS011;9986;50.610;7.230;2022-08-05T13:20:48;6.20;;;3.87;;
19673;SDS011;9986;50.610;7.230;2022-08-05T13:23:26;7.23;;;3.20;;
19673;SDS011;9986;50.610;7.230;2022-08-05T13:26:10;2.83;;;2.63;;
19673;SDS011;9986;50.610;7.230;2022-08-05T13:28:47;5.43;;;2.97;;
19673;SDS011;9986;50.610;7.230;2022-08-05T13:31:25;4.23;;;3.53;;
19673;SDS011;9986;50.610;7.230;2022-08-05T13:34:03;5.27;;;2.90;;
19673;SDS011;9986;50.610;7.230;2022-08-05T13:39:17;4.53;;;2.93;;
19673;SDS011;9986;50.610;7.230;2022-08-05T13:41:58;3.33;;;2.13;;
19673;SDS011;9986;50.610;7.230;2022-08-05T13:44:36;3.80;;;2.70;;
19673;SDS011;9986;50.610;7.230;2022-08-05T13:49:46;4.97;;;2.77;;
19673;SDS011;9986;50.610;7.230;2022-08-05T13:52:24;3.03;;;2.40;;
19673;SDS011;9986;50.610;7.230;2022-08-05T13:55:02;3.37;;;2.33;;
19673;SDS011;9986;50.610;7.230;2022-08-05T14:00:11;4.53;;;2.53;;
19673;SDS011;9986;50.610;7.230;2022-08-05T14:02:49;3.60;;;1.83;;
19673;SDS011;9986;50.610;7.230;2022-08-05T14:05:27;2.23;;;2.00;;
19673;SDS011;9986;50.610;7.230;2022-08-05T14:08:05;4.13;;;1.93;;
19673;SDS011;9986;50.610;7.230;2022-08-05T14:10:43;4.10;;;2.00;;
19673;SDS011;9986;50.610;7.230;2022-08-05T14:13:21;3.50;;;1.80;;
19673;SDS011;9986;50.610;7.230;2022-08-05T14:18:35;3.33;;;2.08;;
19673;SDS011;9986;50.610;7.230;2022-08-05T14:21:12;3.27;;;1.80;;
19673;SDS011;9986;50.610;7.230;2022-08-05T14:23:50;2.58;;;1.90;;
19673;SDS011;9986;50.610;7.230;2022-08-05T14:28:57;4.17;;;2.00;;
19673;SDS011;9986;50.610;7.230;2022-08-05T14:31:38;2.87;;;1.98;;
19673;SDS011;9986;50.610;7.230;2022-08-05T14:34:18;3.30;;;2.35;;
19673;SDS011;9986;50.610;7.230;2022-08-05T14:36:58;2.98;;;1.80;;
19673;SDS011;9986;50.610;7.230;2022-08-05T14:39:42;3.45;;;1.82;;
19673;SDS011;9986;50.610;7.230;2022-08-05T14:47:28;3.75;;;1.80;;
19673;SDS011;9986;50.610;7.230;2022-08-05T14:50:07;3.40;;;1.85;;
19673;SDS011;9986;50.610;7.230;2022-08-05T14:52:45;3.12;;;1.98;;
19673;SDS011;9986;50.610;7.230;2022-08-05T14:57:53;3.50;;;2.47;;
19673;SDS011;9986;50.610;7.230;2022-08-05T15:00:39;3.90;;;2.30;;
19673;SDS011;9986;50.610;7.230;2022-08-05T15:03:17;3.10;;;2.12;;
19673;SDS011;9986;50.610;7.230;2022-08-05T15:05:55;4.12;;;2.25;;
19673;SDS011;9986;50.610;7.230;2022-08-05T15:08:33;2.40;;;2.20;;
19673;SDS011;9986;50.610;7.230;2022-08-05T15:11:11;6.05;;;3.10;;
19673;SDS011;9986;50.610;7.230;2022-08-05T15:13:49;3.92;;;3.30;;
19673;SDS011;9986;50.610;7.230;2022-08-05T15:16:26;3.77;;;2.92;;
19673;SDS011;9986;50.610;7.230;2022-08-05T15:19:07;4.40;;;4.00;;
19673;SDS011;9986;50.610;7.230;2022-08-05T15:21:48;3.65;;;2.40;;
19673;SDS011;9986;50.610;7.230;2022-08-05T15:24:34;3.00;;;2.70;;
19673;SDS011;9986;50.610;7.230;2022-08-05T15:27:15;3.77;;;3.42;;
19673;SDS011;9986;50.610;7.230;2022-08-05T15:29:53;5.42;;;3.62;;
19673;SDS011;9986;50.610;7.230;2022-08-05T15:37:45;5.90;;;3.65;;
19673;SDS011;9986;50.610;7.230;2022-08-05T15:40:24;3.92;;;3.40;;
19673;SDS011;9986;50.610;7.230;2022-08-05T15:45:31;5.40;;;4.13;;
19673;SDS011;9986;50.610;7.230;2022-08-05T15:48:09;6.58;;;3.60;;
19673;SDS011;9986;50.610;7.230;2022-08-05T15:53:24;3.62;;;3.33;;
19673;SDS011;9986;50.610;7.230;2022-08-05T15:58:37;6.08;;;3.62;;
19673;SDS011;9986;50.610;7.230;2022-08-05T16:01:15;4.20;;;3.27;;
19673;SDS011;9986;50.610;7.230;2022-08-05T16:06:28;5.45;;;4.05;;
19673;SDS011;9986;50.610;7.230;2022-08-05T16:09:06;4.57;;;3.70;;
19673;SDS011;9986;50.610;7.230;2022-08-05T16:16:48;4.23;;;3.00;;
19673;SDS011;9986;50.610;7.230;2022-08-05T16:19:26;3.17;;;2.90;;
19673;SDS011;9986;50.610;7.230;2022-08-05T16:24:40;2.80;;;2.60;;
19673;SDS011;9986;50.610;7.230;2022-08-05T16:29:59;2.63;;;2.20;;
19673;SDS011;9986;50.610;7.230;2022-08-05T16:32:37;2.63;;;2.20;;
19673;SDS011;9986;50.610;7.230;2022-08-05T16:37:57;2.70;;;1.83;;
19673;SDS011;9986;50.610;7.230;2022-08-05T16:40:35;2.43;;;1.90;;
19673;SDS011;9986;50.610;7.230;2022-08-05T16:45:47;4.67;;;2.30;;
19673;SDS011;9986;50.610;7.230;2022-08-05T16:48:25;2.17;;;1.97;;
19673;SDS011;9986;50.610;7.230;2022-08-05T16:51:06;2.47;;;2.03;;
19673;SDS011;9986;50.610;7.230;2022-08-05T16:56:13;4.20;;;2.27;;
19673;SDS011;9986;50.610;7.230;2022-08-05T16:58:51;2.17;;;1.80;;
19673;SDS011;9986;50.610;7.230;2022-08-05T17:01:32;4.37;;;3.43;;
19673;SDS011;9986;50.610;7.230;2022-08-05T17:04:09;2.70;;;2.07;;
19673;SDS011;9986;50.610;7.230;2022-08-05T17:06:54;2.53;;;2.07;;
19673;SDS011;9986;50.610;7.230;2022-08-05T17:09:32;4.37;;;2.17;;
19673;SDS011;9986;50.610;7.230;2022-08-05T17:14:39;2.70;;;1.90;;
19673;SDS011;9986;50.610;7.230;2022-08-05T17:17:17;2.23;;;1.93;;
19673;SDS011;9986;50.610;7.230;2022-08-05T17:19:54;3.03;;;1.97;;
19673;SDS011;9986;50.610;7.230;2022-08-05T17:22:36;3.60;;;1.90;;
19673;SDS011;9986;50.610;7.230;2022-08-05T17:27:59;2.80;;;1.90;;
19673;SDS011;9986;50.610;7.230;2022-08-05T17:30:39;3.93;;;2.03;;
19673;SDS011;9986;50.610;7.230;2022-08-05T17:33:16;1.90;;;1.80;;
19673;SDS011;9986;50.610;7.230;2022-08-05T17:36:00;3.40;;;1.90;;
19673;SDS011;9986;50.610;7.230;2022-08-05T17:38:44;2.23;;;2.10;;
19673;SDS011;9986;50.610;7.230;2022-08-05T17:41:21;2.83;;;2.00;;
19673;SDS011;9986;50.610;7.230;2022-08-05T17:43:59;3.50;;;2.47;;
19673;SDS011;9986;50.610;7.230;2022-08-05T17:46:40;2.57;;;2.13;;
19673;SDS011;9986;50.610;7.230;2022-08-05T17:49:20;1.83;;;1.67;;
19673;SDS011;9986;50.610;7.230;2022-08-05T17:51:57;2.57;;;1.80;;
19673;SDS011;9986;50.610;7.230;2022-08-05T17:54:35;5.03;;;2.00;;
19673;SDS011;9986;50.610;7.230;2022-08-05T17:57:16;2.63;;;1.80;;
19673;SDS011;9986;50.610;7.230;2022-08-05T18:00:04;5.20;;;1.70;;
19673;SDS011;9986;50.610;7.230;2022-08-05T18:05:24;2.33;;;1.70;;
19673;SDS011;9986;50.610;7.230;2022-08-05T18:13:14;1.73;;;1.30;;
19673;SDS011;9986;50.610;7.230;2022-08-05T18:15:54;1.70;;;1.30;;
19673;SDS011;9986;50.610;7.230;2022-08-05T18:18:35;2.73;;;1.20;;
19673;SDS011;9986;50.610;7.230;2022-08-05T18:21:15;1.87;;;1.40;;
19673;SDS011;9986;50.610;7.230;2022-08-05T18:23:53;3.17;;;1.17;;
19673;SDS011;9986;50.610;7.230;2022-08-05T18:29:13;1.43;;;1.20;;
19673;SDS011;9986;50.610;7.230;2022-08-05T18:31:51;1.97;;;1.23;;
19673;SDS011;9986;50.610;7.230;2022-08-05T18:34:28;1.10;;;1.00;;
19673;SDS011;9986;50.610;7.230;2022-08-05T18:37:15;0.93;;;0.93;;
19673;SDS011;9986;50.610;7.230;2022-08-05T18:39:59;3.83;;;1.07;;
19673;SDS011;9986;50.610;7.230;2022-08-05T18:42:37;1.57;;;1.00;;
19673;SDS011;9986;50.610;7.230;2022-08-05T18:45:15;2.77;;;1.07;;
19673;SDS011;9986;50.610;7.230;2022-08-05T18:52:59;3.43;;;1.20;;
19673;SDS011;9986;50.610;7.230;2022-08-05T18:58:07;2.40;;;2.20;;
19673;SDS011;9986;50.610;7.230;2022-08-05T19:00:45;9.37;;;5.17;;
19673;SDS011;9986;50.610;7.230;2022-08-05T19:03:22;3.50;;;1.20;;
19673;SDS011;9986;50.610;7.230;2022-08-05T19:08:30;1.80;;;0.97;;
19673;SDS011;9986;50.610;7.230;2022-08-05T19:11:07;3.57;;;1.03;;
19673;SDS011;9986;50.610;7.230;2022-08-05T19:13:51;2.13;;;0.93;;
19673;SDS011;9986;50.610;7.230;2022-08-05T19:16:29;2.00;;;0.80;;
19673;SDS011;9986;50.610;7.230;2022-08-05T19:19:07;2.50;;;1.00;;
19673;SDS011;9986;50.610;7.230;2022-08-05T19:21:47;0.70;;;0.70;;
19673;SDS011;9986;50.610;7.230;2022-08-05T19:24:25;1.77;;;0.90;;
19673;SDS011;9986;50.610;7.230;2022-08-05T19:27:03;0.87;;;0.70;;
19673;SDS011;9986;50.610;7.230;2022-08-05T19:29:43;0.67;;;0.67;;
19673;SDS011;9986;50.610;7.230;2022-08-05T19:32:21;2.70;;;0.80;;
19673;SDS011;9986;50.610;7.230;2022-08-05T19:34:59;1.80;;;0.70;;
19673;SDS011;9986;50.610;7.230;2022-08-05T19:37:37;1.37;;;0.50;;
19673;SDS011;9986;50.610;7.230;2022-08-05T19:42:45;0.63;;;0.50;;
19673;SDS011;9986;50.610;7.230;2022-08-05T19:45:23;1.27;;;0.70;;
19673;SDS011;9986;50.610;7.230;2022-08-05T19:48:01;1.17;;;0.60;;
19673;SDS011;9986;50.610;7.230;2022-08-05T19:50:39;3.17;;;0.70;;
19673;SDS011;9986;50.610;7.230;2022-08-05T19:53:17;2.07;;;0.73;;
19673;SDS011;9986;50.610;7.230;2022-08-05T19:55:54;1.63;;;0.60;;
19673;SDS011;9986;50.610;7.230;2022-08-05T19:58:32;1.10;;;0.67;;
19673;SDS011;9986;50.610;7.230;2022-08-05T20:01:10;2.30;;;0.70;;
19673;SDS011;9986;50.610;7.230;2022-08-05T20:03:47;0.50;;;0.50;;
19673;SDS011;9986;50.610;7.230;2022-08-05T20:06:34;2.20;;;0.57;;
19673;SDS011;9986;50.610;7.230;2022-08-05T20:09:13;1.90;;;0.70;;
19673;SDS011;9986;50.610;7.230;2022-08-05T20:11:53;0.37;;;0.37;;
19673;SDS011;9986;50.610;7.230;2022-08-05T20:14:31;0.53;;;0.50;;